Time;durP1;ratioP1;P1;durP2;ratioP2;P2;SDS_P1;SDS_P2;PMS_P1;PMS_P2;Temp;Humidity;BMP_temperature;BMP_pressure;BME280_temperature;BME280_humidity;BME280_pressure;Samples;Min_cycle;Max_cycle;Signal;HPM_P1;HPM_P2
2023/06/18 00:01:43;;;;;;;0.10;0.10;;;19.10;99.90;;;;;;5047046;28;20269;-81
2023/06/18 00:04:08;;;;;;;0.10;0.10;;;19.30;99.90;;;;;;5044590;28;20206;-81
2023/06/18 00:06:34;;;;;;;0.10;0.10;;;19.20;99.90;;;;;;5044225;28;20208;-81
2023/06/18 00:08:59;;;;;;;0.10;0.10;;;19.10;99.90;;;;;;5047419;28;20209;-82
2023/06/18 00:11:25;;;;;;;0.10;0.10;;;19.20;99.90;;;;;;5044525;28;20174;-81
2023/06/18 00:13:50;;;;;;;0.10;0.10;;;19.00;99.90;;;;;;5044579;28;20644;-81
2023/06/18 00:16:16;;;;;;;0.10;0.10;;;19.00;99.90;;;;;;5046251;28;20186;-81
2023/06/18 00:18:41;;;;;;;0.10;0.10;;;19.10;99.90;;;;;;5045260;28;20209;-81
2023/06/18 00:21:10;;;;;;;0.10;0.10;;;19.00;99.90;;;;;;5047465;28;20347;-81
2023/06/18 00:23:36;;;;;;;0.10;0.10;;;18.80;99.90;;;;;;5042319;28;20650;-81
2023/06/18 00:26:01;;;;;;;0.10;0.10;;;18.80;99.90;;;;;;5042433;28;20189;-81
2023/06/18 00:28:28;;;;;;;0.10;0.10;;;18.80;99.90;;;;;;5048270;28;20202;-81
2023/06/18 00:30:54;;;;;;;0.10;0.10;;;18.70;99.90;;;;;;5044818;28;20205;-81
2023/06/18 00:33:20;;;;;;;0.10;0.10;;;18.60;99.90;;;;;;5044856;28;20216;-81
2023/06/18 00:35:46;;;;;;;0.10;0.10;;;18.40;99.90;;;;;;5043953;28;20207;-81
2023/06/18 00:38:11;;;;;;;0.10;0.10;;;18.40;99.90;;;;;;5044683;28;20177;-80
2023/06/18 00:40:37;;;;;;;0.10;0.10;;;18.30;99.90;;;;;;5046745;28;20178;-81
2023/06/18 00:43:03;;;;;;;0.10;0.10;;;18.20;99.90;;;;;;5040208;28;20239;-81
2023/06/18 00:45:30;;;;;;;0.10;0.10;;;18.10;99.90;;;;;;5048323;28;20283;-81
2023/06/18 00:47:56;;;;;;;0.10;0.10;;;18.00;99.90;;;;;;5048519;28;20510;-81
2023/06/18 00:50:26;;;;;;;0.10;0.10;;;17.80;99.90;;;;;;5048830;28;20253;-81
2023/06/18 00:52:59;;;;;;;0.10;0.10;;;17.80;99.90;;;;;;5045489;28;20643;-81
2023/06/18 00:55:26;;;;;;;0.10;0.10;;;17.60;99.90;;;;;;5050472;28;20212;-81
2023/06/18 00:57:59;;;;;;;0.10;0.10;;;17.60;99.90;;;;;;5051718;28;20170;-80
2023/06/18 01:00:25;;;;;;;0.10;0.10;;;17.50;99.90;;;;;;5053139;28;20206;-81
2023/06/18 01:02:53;;;;;;;0.10;0.10;;;17.40;99.90;;;;;;5053313;28;20206;-81
2023/06/18 01:05:20;;;;;;;0.10;0.10;;;17.40;99.90;;;;;;5050382;28;20273;-80
2023/06/18 01:07:48;;;;;;;0.00;0.00;;;17.30;99.90;;;;;;5046775;28;20247;-81
2023/06/18 01:10:15;;;;;;;0.10;0.10;;;17.30;99.90;;;;;;5045937;28;20250;-81
2023/06/18 01:12:48;;;;;;;0.10;0.10;;;17.30;99.90;;;;;;5047143;28;20189;-81
2023/06/18 01:15:18;;;;;;;0.10;0.10;;;17.10;99.90;;;;;;5049213;28;20181;-81
2023/06/18 01:17:47;;;;;;;0.10;0.10;;;17.10;99.90;;;;;;5049360;28;20188;-81
2023/06/18 01:20:15;;;;;;;0.10;0.10;;;17.10;99.90;;;;;;5051512;28;20202;-81
2023/06/18 01:23:00;;;;;;;0.10;0.10;;;17.20;99.90;;;;;;5048878;28;20584;-81
2023/06/18 01:25:27;;;;;;;0.10;0.10;;;17.30;99.90;;;;;;5046033;28;20210;-80
2023/06/18 01:27:53;;;;;;;0.10;0.10;;;17.40;99.90;;;;;;5048580;28;20178;-81
2023/06/18 01:30:20;;;;;;;0.10;0.10;;;17.40;99.90;;;;;;5048580;28;20577;-81
2023/06/18 01:32:46;;;;;;;0.10;0.10;;;17.50;99.90;;;;;;5048843;28;20185;-81
2023/06/18 01:35:15;;;;;;;0.10;0.10;;;17.50;99.90;;;;;;5052280;28;20552;-81
2023/06/18 01:37:48;;;;;;;0.10;0.10;;;17.50;99.90;;;;;;5050395;28;20191;-81
2023/06/18 01:40:21;;;;;;;0.10;0.10;;;17.70;99.90;;;;;;5047474;28;20201;-80
2023/06/18 01:42:54;;;;;;;0.10;0.10;;;17.80;99.90;;;;;;5047911;28;20259;-82
2023/06/18 01:45:32;;;;;;;0.10;0.10;;;17.90;99.90;;;;;;5048122;28;20298;-81
2023/06/18 01:48:02;;;;;;;0.10;0.10;;;18.00;99.90;;;;;;5048644;28;20181;-81
2023/06/18 01:50:30;;;;;;;0.10;0.10;;;18.00;99.90;;;;;;5056193;28;20202;-81
2023/06/18 01:52:58;;;;;;;0.10;0.10;;;17.90;99.90;;;;;;5049105;28;20181;-81
2023/06/18 01:55:27;;;;;;;0.10;0.10;;;18.00;99.90;;;;;;5047926;28;20629;-81
2023/06/18 01:57:54;;;;;;;0.10;0.10;;;18.00;99.90;;;;;;5047684;28;20181;-81
2023/06/18 02:00:19;;;;;;;0.10;0.10;;;18.10;99.90;;;;;;5046133;28;20594;-81
2023/06/18 02:02:46;;;;;;;0.10;0.10;;;18.10;99.90;;;;;;5048984;28;20188;-81
2023/06/18 02:05:12;;;;;;;0.10;0.10;;;18.10;99.90;;;;;;5047766;28;20229;-81
2023/06/18 02:07:37;;;;;;;0.10;0.10;;;18.20;99.90;;;;;;5049617;28;20532;-81
2023/06/18 02:10:03;;;;;;;0.10;0.10;;;17.90;99.90;;;;;;5047917;28;20693;-81
2023/06/18 02:12:29;;;;;;;0.10;0.10;;;17.60;99.90;;;;;;5049130;28;20250;-80
2023/06/18 02:14:54;;;;;;;0.10;0.10;;;17.50;99.90;;;;;;5049745;28;20181;-81
2023/06/18 02:17:20;;;;;;;0.10;0.10;;;17.60;99.90;;;;;;5047999;28;20200;-81
2023/06/18 02:19:46;;;;;;;0.10;0.10;;;17.50;99.90;;;;;;5046539;28;20202;-81
2023/06/18 02:22:11;;;;;;;0.10;0.10;;;17.40;99.90;;;;;;5048970;28;20182;-81
2023/06/18 02:24:36;;;;;;;0.10;0.10;;;17.50;99.90;;;;;;5047322;28;20201;-81
2023/06/18 02:27:02;;;;;;;0.10;0.10;;;17.60;99.90;;;;;;5051386;28;20261;-79
2023/06/18 02:29:28;;;;;;;0.10;0.10;;;17.70;99.90;;;;;;5047247;28;20204;-80
2023/06/18 02:31:53;;;;;;;0.10;0.10;;;17.70;99.90;;;;;;5044991;28;20272;-80
2023/06/18 02:34:19;;;;;;;0.10;0.10;;;17.80;99.90;;;;;;5045110;28;20190;-81
2023/06/18 02:36:46;;;;;;;0.10;0.10;;;17.80;99.90;;;;;;5049449;28;20243;-81
2023/06/18 02:39:12;;;;;;;0.10;0.10;;;17.90;99.90;;;;;;5045211;28;20276;-80
2023/06/18 02:41:38;;;;;;;0.10;0.10;;;17.80;99.90;;;;;;5044369;28;20270;-81
2023/06/18 02:44:04;;;;;;;0.10;0.10;;;17.70;99.90;;;;;;5043777;28;20241;-81
2023/06/18 02:46:29;;;;;;;0.10;0.10;;;17.70;99.90;;;;;;5044487;28;20255;-80
2023/06/18 02:48:55;;;;;;;0.10;0.10;;;17.70;99.90;;;;;;5044871;28;20343;-81
2023/06/18 02:51:20;;;;;;;0.10;0.10;;;17.70;99.90;;;;;;5041174;28;20188;-81
2023/06/18 02:53:46;;;;;;;0.10;0.10;;;17.80;99.90;;;;;;5045945;28;20239;-81
2023/06/18 02:56:11;;;;;;;0.10;0.10;;;17.80;99.90;;;;;;5042738;28;20199;-81
2023/06/18 02:58:37;;;;;;;0.10;0.10;;;17.90;99.90;;;;;;5045483;28;20227;-81
2023/06/18 03:01:02;;;;;;;0.03;0.03;;;17.90;99.90;;;;;;5041658;28;20196;-81
2023/06/18 03:03:28;;;;;;;0.10;0.10;;;17.80;99.90;;;;;;5046521;28;20182;-81
2023/06/18 03:05:54;;;;;;;0.10;0.10;;;17.90;99.90;;;;;;5046017;28;20241;-81
2023/06/18 03:08:20;;;;;;;0.10;0.10;;;17.80;99.90;;;;;;5044518;28;20189;-81
2023/06/18 03:10:45;;;;;;;0.10;0.10;;;17.80;99.90;;;;;;5045733;28;20184;-81
2023/06/18 03:13:14;;;;;;;0.10;0.10;;;17.90;99.90;;;;;;5055490;28;20212;-81
2023/06/18 03:15:43;;;;;;;0.10;0.10;;;17.90;99.90;;;;;;5044465;28;20184;-81
2023/06/18 03:18:10;;;;;;;0.10;0.10;;;17.90;99.90;;;;;;5047006;28;20186;-81
2023/06/18 03:20:35;;;;;;;0.10;0.10;;;17.80;99.90;;;;;;5045176;28;20191;-81
2023/06/18 03:23:01;;;;;;;0.10;0.10;;;17.90;99.90;;;;;;5043860;28;20590;-81
2023/06/18 03:25:26;;;;;;;0.10;0.10;;;17.90;99.90;;;;;;5042810;28;20274;-80
2023/06/18 03:27:52;;;;;;;0.10;0.10;;;17.90;99.90;;;;;;5045337;28;20540;-81
2023/06/18 03:30:18;;;;;;;0.10;0.10;;;18.00;99.90;;;;;;5041195;28;20203;-81
2023/06/18 03:32:43;;;;;;;0.10;0.10;;;18.00;99.90;;;;;;5040321;28;20189;-81
2023/06/18 03:35:09;;;;;;;0.10;0.10;;;18.00;99.90;;;;;;5046111;28;20189;-81
2023/06/18 03:37:36;;;;;;;0.10;0.10;;;18.10;99.90;;;;;;5044359;28;20625;-81
2023/06/18 03:40:05;;;;;;;0.10;0.10;;;18.40;99.90;;;;;;5041548;28;20239;-81
2023/06/18 03:42:31;;;;;;;0.10;0.10;;;18.80;99.90;;;;;;5044805;28;20192;-82
2023/06/18 03:44:56;;;;;;;0.00;0.00;;;19.10;99.90;;;;;;5044742;28;20202;-81
2023/06/18 03:47:22;;;;;;;0.10;0.10;;;19.40;99.90;;;;;;5043015;28;20175;-81
2023/06/18 03:49:48;;;;;;;0.10;0.10;;;19.80;99.90;;;;;;5043738;28;20246;-81
2023/06/18 03:52:13;;;;;;;0.10;0.10;;;19.90;99.90;;;;;;5044337;28;20192;-80
2023/06/18 03:54:39;;;;;;;0.10;0.10;;;20.20;99.90;;;;;;5044466;28;20679;-80
2023/06/18 03:57:05;;;;;;;0.10;0.10;;;20.70;99.90;;;;;;5042703;28;20192;-81
2023/06/18 03:59:31;;;;;;;0.10;0.10;;;21.00;99.90;;;;;;5043393;28;20212;-81
2023/06/18 04:01:57;;;;;;;0.10;0.10;;;21.30;99.90;;;;;;5040404;28;20245;-81
2023/06/18 04:04:23;;;;;;;0.10;0.10;;;21.50;99.90;;;;;;5040563;28;20304;-81
2023/06/18 04:06:48;;;;;;;0.10;0.10;;;21.90;99.90;;;;;;5042088;28;20189;-81
2023/06/18 04:09:14;;;;;;;0.10;0.10;;;22.10;99.90;;;;;;5041187;28;20683;-81
2023/06/18 04:11:42;;;;;;;0.10;0.10;;;22.10;99.90;;;;;;5043251;28;20185;-81
2023/06/18 04:14:09;;;;;;;0.10;0.10;;;22.30;99.90;;;;;;5046134;28;20196;-81
2023/06/18 04:16:34;;;;;;;0.10;0.10;;;22.40;99.90;;;;;;5046420;28;20197;-80
2023/06/18 04:19:00;;;;;;;0.10;0.10;;;22.60;99.90;;;;;;5045645;28;20221;-81
2023/06/18 04:21:25;;;;;;;0.10;0.10;;;22.70;99.90;;;;;;5042484;28;20274;-81
2023/06/18 04:23:53;;;;;;;0.10;0.10;;;22.90;99.90;;;;;;5047448;28;20186;-81
2023/06/18 04:26:18;;;;;;;0.10;0.10;;;22.90;99.90;;;;;;5044359;28;20193;-81
2023/06/18 04:28:44;;;;;;;0.10;0.10;;;22.30;99.90;;;;;;5046579;28;20206;-80
2023/06/18 04:31:09;;;;;;;0.10;0.10;;;21.70;99.90;;;;;;5046068;28;21102;-81
2023/06/18 04:33:36;;;;;;;0.10;0.10;;;21.10;99.90;;;;;;5050685;28;20173;-80
2023/06/18 04:36:01;;;;;;;0.10;0.10;;;20.80;99.90;;;;;;5047923;28;20718;-80
2023/06/18 04:38:27;;;;;;;0.10;0.10;;;20.70;99.90;;;;;;5046595;28;20189;-80
2023/06/18 04:40:53;;;;;;;0.10;0.10;;;20.70;99.90;;;;;;5048468;28;20706;-80
2023/06/18 04:43:19;;;;;;;0.10;0.10;;;20.80;99.90;;;;;;5044689;28;20664;-80
2023/06/18 04:45:46;;;;;;;0.10;0.10;;;20.80;99.90;;;;;;5045886;28;20271;-79
2023/06/18 04:48:12;;;;;;;0.10;0.10;;;20.80;99.90;;;;;;5044402;28;20186;-79
2023/06/18 04:50:38;;;;;;;0.10;0.10;;;20.80;99.90;;;;;;5047795;28;20177;-79
2023/06/18 04:53:04;;;;;;;0.10;0.10;;;20.80;99.90;;;;;;5048004;28;20230;-79
2023/06/18 04:55:29;;;;;;;0.10;0.10;;;20.70;99.90;;;;;;5048230;28;20181;-79
2023/06/18 04:57:56;;;;;;;0.10;0.10;;;20.60;99.90;;;;;;5046210;28;20561;-80
2023/06/18 05:00:22;;;;;;;0.10;0.10;;;20.50;99.90;;;;;;5047667;28;20201;-79
2023/06/18 05:02:47;;;;;;;0.10;0.10;;;20.60;99.90;;;;;;5049858;28;20193;-79
2023/06/18 05:05:13;;;;;;;0.10;0.10;;;20.70;99.90;;;;;;5047868;28;20202;-79
2023/06/18 05:07:38;;;;;;;0.10;0.10;;;20.70;99.90;;;;;;5045346;28;20260;-79
2023/06/18 05:10:04;;;;;;;0.10;0.10;;;20.70;99.90;;;;;;5046570;28;20569;-80
2023/06/18 05:12:30;;;;;;;0.10;0.10;;;20.70;99.90;;;;;;5046545;28;20178;-79
2023/06/18 05:14:55;;;;;;;0.10;0.10;;;20.80;99.90;;;;;;5040943;28;20753;-79
2023/06/18 05:17:21;;;;;;;0.10;0.10;;;20.70;99.90;;;;;;5043806;28;20182;-81
2023/06/18 05:19:46;;;;;;;0.10;0.10;;;20.80;99.90;;;;;;5044921;28;20248;-80
2023/06/18 05:22:12;;;;;;;0.10;0.10;;;20.80;99.90;;;;;;5045686;28;20212;-80
2023/06/18 05:24:39;;;;;;;0.10;0.10;;;20.70;99.90;;;;;;5046806;28;20206;-79
2023/06/18 05:27:05;;;;;;;0.10;0.10;;;20.60;99.90;;;;;;5044591;28;20189;-79
2023/06/18 05:29:31;;;;;;;0.10;0.10;;;20.60;99.90;;;;;;5045184;28;20245;-80
2023/06/18 05:31:56;;;;;;;0.10;0.10;;;20.60;99.90;;;;;;5047349;28;20213;-79
2023/06/18 05:34:22;;;;;;;0.10;0.10;;;20.50;99.90;;;;;;5043686;28;20304;-79
2023/06/18 05:36:47;;;;;;;0.10;0.10;;;20.50;99.90;;;;;;5045885;28;20186;-79
2023/06/18 05:39:13;;;;;;;0.10;0.10;;;20.60;99.90;;;;;;5047024;28;20197;-79
2023/06/18 05:41:39;;;;;;;0.10;0.10;;;20.70;99.90;;;;;;5049064;28;20232;-79
2023/06/18 05:44:04;;;;;;;0.10;0.10;;;20.80;99.90;;;;;;5044181;28;20225;-81
2023/06/18 05:46:30;;;;;;;0.10;0.10;;;20.80;99.90;;;;;;5040860;28;20186;-80
2023/06/18 05:48:56;;;;;;;0.10;0.10;;;20.70;99.90;;;;;;5044406;28;20213;-81
2023/06/18 05:51:22;;;;;;;0.10;0.10;;;20.60;99.90;;;;;;5044283;28;20178;-81
2023/06/18 05:53:47;;;;;;;0.10;0.10;;;20.60;99.90;;;;;;5043125;28;20194;-81
2023/06/18 05:56:13;;;;;;;0.10;0.10;;;20.70;99.90;;;;;;5045118;28;20196;-81
2023/06/18 05:58:39;;;;;;;0.10;0.10;;;20.80;99.90;;;;;;5039046;28;20205;-81
2023/06/18 06:01:04;;;;;;;0.10;0.10;;;21.00;99.90;;;;;;5042571;28;20745;-80
2023/06/18 06:03:30;;;;;;;0.10;0.10;;;21.10;99.90;;;;;;5043805;28;20757;-81
2023/06/18 06:05:55;;;;;;;0.10;0.10;;;21.20;99.90;;;;;;5042521;28;20205;-80
2023/06/18 06:08:22;;;;;;;0.10;0.10;;;21.30;99.90;;;;;;5042472;28;20174;-81
2023/06/18 06:10:47;;;;;;;0.10;0.10;;;21.50;99.90;;;;;;5045980;28;20185;-80
2023/06/18 06:13:13;;;;;;;0.10;0.10;;;21.60;99.90;;;;;;5052543;28;20268;-81
2023/06/18 06:15:38;;;;;;;0.10;0.10;;;21.80;99.90;;;;;;5045352;28;20283;-80
2023/06/18 06:18:04;;;;;;;0.10;0.10;;;21.80;99.90;;;;;;5040568;28;20198;-81
2023/06/18 06:20:29;;;;;;;0.10;0.10;;;21.90;99.90;;;;;;5044095;28;20193;-81
2023/06/18 06:22:55;;;;;;;0.10;0.10;;;22.10;99.90;;;;;;5043409;28;20548;-81
2023/06/18 06:25:21;;;;;;;0.10;0.10;;;22.20;99.90;;;;;;5045769;28;20256;-80
2023/06/18 06:27:46;;;;;;;0.10;0.10;;;22.50;99.90;;;;;;5044798;28;20181;-80
2023/06/18 06:30:12;;;;;;;0.10;0.10;;;22.50;99.90;;;;;;5042217;28;20202;-81
2023/06/18 06:32:37;;;;;;;0.10;0.10;;;22.60;99.90;;;;;;5043717;28;20674;-80
2023/06/18 06:35:04;;;;;;;0.10;0.10;;;22.80;99.90;;;;;;5037813;28;20210;-80
2023/06/18 06:37:30;;;;;;;0.10;0.10;;;22.60;99.90;;;;;;5044856;28;20285;-80
2023/06/18 06:39:56;;;;;;;0.10;0.10;;;22.90;99.90;;;;;;5041536;28;20263;-79
2023/06/18 06:42:22;;;;;;;0.10;0.10;;;22.90;99.90;;;;;;5042459;28;20604;-80
2023/06/18 06:44:47;;;;;;;0.10;0.10;;;22.40;99.90;;;;;;5046731;28;20308;-79
2023/06/18 06:47:13;;;;;;;0.10;0.10;;;22.50;99.90;;;;;;5044827;28;20231;-80
2023/06/18 06:49:38;;;;;;;0.10;0.10;;;23.00;99.90;;;;;;5044425;28;20200;-79
2023/06/18 06:52:04;;;;;;;0.10;0.10;;;23.30;99.90;;;;;;5043470;28;20194;-79
2023/06/18 06:54:30;;;;;;;0.10;0.10;;;23.60;99.90;;;;;;5045002;28;20192;-79
2023/06/18 06:56:55;;;;;;;0.10;0.10;;;23.80;99.90;;;;;;5054044;28;20218;-79
2023/06/18 06:59:21;;;;;;;0.10;0.10;;;23.90;99.90;;;;;;5042896;28;20209;-79
2023/06/18 07:01:46;;;;;;;0.10;0.10;;;24.20;99.90;;;;;;5045414;28;20200;-80
2023/06/18 07:04:13;;;;;;;0.10;0.10;;;24.30;99.90;;;;;;5044797;28;20587;-79
2023/06/18 07:06:38;;;;;;;0.10;0.10;;;24.40;99.90;;;;;;5047393;28;20202;-80
2023/06/18 07:09:05;;;;;;;0.10;0.10;;;24.30;99.90;;;;;;5045912;28;20996;-80
2023/06/18 07:11:32;;;;;;;0.10;0.10;;;24.50;99.90;;;;;;5045818;28;20196;-80
2023/06/18 07:13:58;;;;;;;0.10;0.10;;;24.60;99.90;;;;;;5044777;28;20548;-80
2023/06/18 07:16:24;;;;;;;0.10;0.10;;;24.90;99.90;;;;;;5043231;28;20186;-80
2023/06/18 07:18:50;;;;;;;0.10;0.10;;;24.90;99.90;;;;;;5046224;28;20736;-80
2023/06/18 07:21:16;;;;;;;0.10;0.10;;;24.40;99.90;;;;;;5045368;28;20186;-80
2023/06/18 07:23:42;;;;;;;0.10;0.10;;;23.80;99.90;;;;;;5043490;28;20208;-81
2023/06/18 07:26:07;;;;;;;0.10;0.10;;;24.30;99.90;;;;;;5045399;28;20895;-81
2023/06/18 07:28:33;;;;;;;0.10;0.10;;;24.50;99.90;;;;;;5041932;28;20205;-81
2023/06/18 07:30:58;;;;;;;0.10;0.10;;;24.20;99.90;;;;;;5041469;28;20200;-80
2023/06/18 07:33:24;;;;;;;0.10;0.10;;;24.10;99.90;;;;;;5043736;28;20178;-80
2023/06/18 07:35:49;;;;;;;0.10;0.10;;;24.20;99.90;;;;;;5045141;28;20185;-81
2023/06/18 07:38:15;;;;;;;0.10;0.10;;;24.60;99.90;;;;;;5043250;28;20193;-81
2023/06/18 07:40:41;;;;;;;0.10;0.10;;;24.90;99.90;;;;;;5043394;28;20215;-81
2023/06/18 07:43:06;;;;;;;0.10;0.10;;;24.60;99.90;;;;;;5039526;28;20253;-81
2023/06/18 07:45:32;;;;;;;0.10;0.10;;;24.50;99.90;;;;;;5044338;28;20213;-81
2023/06/18 07:47:58;;;;;;;0.10;0.10;;;24.50;99.90;;;;;;5042181;28;20188;-81
2023/06/18 07:50:23;;;;;;;0.10;0.10;;;24.50;99.90;;;;;;5042422;28;20221;-82
2023/06/18 07:52:49;;;;;;;0.10;0.10;;;24.10;99.90;;;;;;5040071;28;20186;-82
2023/06/18 07:55:15;;;;;;;0.10;0.10;;;24.50;99.90;;;;;;5042399;28;20271;-82
2023/06/18 07:57:40;;;;;;;0.10;0.10;;;24.90;99.90;;;;;;5040272;28;20190;-82
2023/06/18 08:00:06;;;;;;;0.10;0.10;;;25.30;99.90;;;;;;5044282;28;20214;-81
2023/06/18 08:02:32;;;;;;;0.10;0.10;;;25.60;99.90;;;;;;5048124;28;20217;-81
2023/06/18 08:04:58;;;;;;;0.10;0.10;;;25.90;99.90;;;;;;5047389;28;20213;-82
2023/06/18 08:07:23;;;;;;;0.10;0.10;;;26.00;99.90;;;;;;5050977;28;20195;-82
2023/06/18 08:09:49;;;;;;;0.10;0.10;;;26.10;99.90;;;;;;5049296;28;20197;-83
2023/06/18 08:12:15;;;;;;;0.10;0.10;;;25.80;99.90;;;;;;5034822;28;20654;-83
2023/06/18 08:14:40;;;;;;;0.10;0.10;;;25.50;99.90;;;;;;5048471;28;20196;-83
2023/06/18 08:17:06;;;;;;;0.10;0.10;;;25.20;99.90;;;;;;5045833;28;20188;-83
2023/06/18 08:19:31;;;;;;;0.10;0.10;;;25.40;99.90;;;;;;5048660;28;20220;-83
2023/06/18 08:21:57;;;;;;;0.10;0.10;;;25.90;99.90;;;;;;5045089;28;20208;-83
2023/06/18 08:24:23;;;;;;;0.10;0.10;;;26.30;99.90;;;;;;5039215;28;20201;-83
2023/06/18 08:26:48;;;;;;;0.10;0.10;;;26.50;99.90;;;;;;5047905;28;20194;-83
2023/06/18 08:29:14;;;;;;;0.10;0.10;;;26.10;99.90;;;;;;5042478;28;20210;-84
2023/06/18 08:31:41;;;;;;;0.10;0.10;;;26.20;99.90;;;;;;5043912;28;20647;-84
2023/06/18 08:34:07;;;;;;;0.10;0.10;;;26.60;99.90;;;;;;5044613;28;20178;-83
2023/06/18 08:36:32;;;;;;;0.10;0.10;;;27.00;99.90;;;;;;5042388;28;20235;-84
2023/06/18 08:38:58;;;;;;;0.10;0.10;;;27.30;99.90;;;;;;5042923;28;20223;-84
2023/06/18 08:41:23;;;;;;;0.10;0.10;;;27.60;99.90;;;;;;5041367;28;20352;-84
2023/06/18 08:43:49;;;;;;;0.10;0.10;;;27.20;99.90;;;;;;5042329;28;20174;-84
2023/06/18 08:46:16;;;;;;;0.10;0.10;;;27.20;99.90;;;;;;5042927;28;20209;-84
2023/06/18 08:48:45;;;;;;;0.10;0.10;;;27.70;99.90;;;;;;5038692;28;20202;-84
2023/06/18 08:51:11;;;;;;;0.10;0.10;;;27.90;99.90;;;;;;5039641;28;20186;-84
2023/06/18 08:53:55;;;;;;;0.10;0.10;;;28.10;99.90;;;;;;5041819;28;20182;-84
2023/06/18 08:56:22;;;;;;;0.10;0.10;;;28.10;99.90;;;;;;5042550;28;20639;-84
2023/06/18 08:58:50;;;;;;;0.10;0.10;;;28.10;99.90;;;;;;5041818;28;20209;-84
2023/06/18 09:01:19;;;;;;;0.10;0.10;;;27.40;99.90;;;;;;5042967;28;20193;-84
2023/06/18 09:03:46;;;;;;;0.10;0.10;;;27.40;99.90;;;;;;5038329;28;20332;-84
2023/06/18 09:06:12;;;;;;;0.10;0.10;;;27.40;99.90;;;;;;5042257;28;20213;-84
2023/06/18 09:08:38;;;;;;;0.10;0.10;;;27.20;99.90;;;;;;5041999;28;20669;-82
2023/06/18 09:11:05;;;;;;;0.10;0.10;;;27.90;99.90;;;;;;5044426;28;20185;-81
2023/06/18 09:13:31;;;;;;;0.10;0.10;;;27.70;99.90;;;;;;5045008;28;20186;-81
2023/06/18 09:15:57;;;;;;;0.10;0.10;;;28.10;99.90;;;;;;5045510;28;20188;-81
2023/06/18 09:18:24;;;;;;;0.10;0.10;;;27.50;99.90;;;;;;5042800;28;20194;-82
2023/06/18 09:20:52;;;;;;;0.10;0.10;;;27.80;99.90;;;;;;5040757;28;20479;-82
2023/06/18 09:23:18;;;;;;;0.10;0.10;;;28.40;99.90;;;;;;5043740;28;20186;-81
2023/06/18 09:25:54;;;;;;;0.10;0.10;;;28.70;99.90;;;;;;5046017;28;20255;-82
2023/06/18 09:28:20;;;;;;;0.10;0.10;;;29.00;99.90;;;;;;5049042;28;20182;-81
2023/06/18 09:31:00;;;;;;;0.10;0.10;;;29.40;99.90;;;;;;5047155;28;20190;-81
2023/06/18 09:33:26;;;;;;;0.10;0.10;;;29.30;99.90;;;;;;5044507;28;20192;-81
2023/06/18 09:36:18;;;;;;;0.10;0.10;;;28.20;99.90;;;;;;5044567;28;20185;-81
2023/06/18 09:38:43;;;;;;;0.10;0.10;;;28.30;99.90;;;;;;5040087;28;20271;-82
2023/06/18 09:41:17;;;;;;;0.10;0.10;;;28.80;99.90;;;;;;5048483;28;20194;-81
2023/06/18 09:43:45;;;;;;;0.10;0.10;;;29.30;99.90;;;;;;5044992;28;20186;-82
2023/06/18 09:46:12;;;;;;;0.10;0.10;;;29.30;99.90;;;;;;5046331;28;20320;-82
2023/06/18 09:48:41;;;;;;;0.10;0.10;;;29.60;99.90;;;;;;5045265;28;20220;-82
2023/06/18 09:51:07;;;;;;;0.10;0.10;;;29.60;99.90;;;;;;5046990;28;20178;-81
2023/06/18 09:53:33;;;;;;;0.10;0.10;;;29.50;99.90;;;;;;5042842;28;20221;-81
2023/06/18 09:56:14;;;;;;;0.10;0.10;;;28.90;99.90;;;;;;5044230;28;20285;-82
2023/06/18 09:58:47;;;;;;;0.10;0.10;;;28.60;99.90;;;;;;5042372;28;21250;-81
2023/06/18 10:01:14;;;;;;;0.10;0.10;;;28.60;99.90;;;;;;5041336;28;20190;-82
2023/06/18 10:03:40;;;;;;;0.10;0.10;;;28.80;99.90;;;;;;5042944;28;20244;-82
2023/06/18 10:06:20;;;;;;;0.10;0.10;;;29.40;99.90;;;;;;5043220;28;20210;-82
2023/06/18 10:08:51;;;;;;;0.10;0.10;;;29.50;99.90;;;;;;5052764;28;20565;-82
2023/06/18 10:11:18;;;;;;;0.10;0.10;;;29.70;99.90;;;;;;5052361;28;20174;-82
2023/06/18 10:13:48;;;;;;;0.10;0.10;;;30.10;99.90;;;;;;5047328;28;21280;-81
2023/06/18 10:16:16;;;;;;;0.10;0.10;;;30.20;99.90;;;;;;5039958;28;20190;-81
2023/06/18 10:18:54;;;;;;;0.10;0.10;;;29.70;99.90;;;;;;5041697;28;20214;-81
2023/06/18 10:21:22;;;;;;;0.10;0.10;;;30.00;99.90;;;;;;5044248;28;20182;-82
2023/06/18 10:24:06;;;;;;;0.10;0.10;;;30.00;99.90;;;;;;5044581;28;20651;-82
2023/06/18 10:26:36;;;;;;;0.10;0.10;;;30.10;99.90;;;;;;5042303;28;20293;-81
2023/06/18 10:29:02;;;;;;;0.10;0.10;;;30.10;99.90;;;;;;5041626;28;20201;-81
2023/06/18 10:31:28;;;;;;;0.10;0.10;;;29.60;99.90;;;;;;5042821;28;20674;-82
2023/06/18 10:33:56;;;;;;;0.10;0.10;;;29.20;99.90;;;;;;5041653;28;20236;-82
2023/06/18 10:36:21;;;;;;;0.10;0.10;;;28.80;99.90;;;;;;5037792;28;20610;-82
2023/06/18 10:38:47;;;;;;;0.10;0.10;;;28.80;99.90;;;;;;5043433;28;20216;-82
2023/06/18 10:41:17;;;;;;;0.10;0.10;;;29.10;99.90;;;;;;5041246;28;20177;-82
2023/06/18 10:43:48;;;;;;;0.10;0.10;;;29.30;99.90;;;;;;5041021;28;20185;-82
2023/06/18 10:46:14;;;;;;;0.10;0.10;;;29.40;99.90;;;;;;5038717;28;20202;-82
2023/06/18 10:48:40;;;;;;;0.10;0.10;;;29.70;99.90;;;;;;5041891;28;20254;-82
2023/06/18 10:51:17;;;;;;;0.10;0.10;;;30.10;99.90;;;;;;5038017;28;20361;-82
2023/06/18 10:53:46;;;;;;;0.10;0.10;;;30.60;99.90;;;;;;5036827;28;20228;-82
2023/06/18 10:56:16;;;;;;;0.10;0.10;;;30.00;99.90;;;;;;5039931;28;20687;-82
2023/06/18 10:58:42;;;;;;;0.10;0.10;;;29.60;99.90;;;;;;5037763;28;20698;-82
2023/06/18 11:01:24;;;;;;;0.10;0.10;;;29.70;99.90;;;;;;5042687;28;20193;-82
2023/06/18 11:04:01;;;;;;;0.10;0.10;;;30.20;99.90;;;;;;5040910;28;20734;-82
2023/06/18 11:06:30;;;;;;;0.10;0.10;;;30.80;99.90;;;;;;5037080;28;20292;-82
2023/06/18 11:08:56;;;;;;;0.10;0.10;;;30.40;99.90;;;;;;5043203;28;20832;-82
2023/06/18 11:11:24;;;;;;;0.10;0.10;;;30.70;99.90;;;;;;5042868;28;20182;-82
2023/06/18 11:13:53;;;;;;;0.10;0.10;;;31.20;99.90;;;;;;5036873;28;20850;-82
2023/06/18 11:16:20;;;;;;;0.10;0.10;;;31.50;99.90;;;;;;5043101;28;20182;-82
2023/06/18 11:18:46;;;;;;;0.10;0.10;;;31.70;99.90;;;;;;5045008;28;20228;-82
2023/06/18 11:21:19;;;;;;;0.10;0.10;;;31.70;99.90;;;;;;5041526;28;20325;-81
2023/06/18 11:23:46;;;;;;;0.10;0.10;;;32.00;99.90;;;;;;5043609;28;20285;-82
2023/06/18 11:26:16;;;;;;;0.10;0.10;;;32.20;99.90;;;;;;5044584;28;20273;-81
2023/06/18 11:28:42;;;;;;;0.10;0.10;;;32.50;99.90;;;;;;5044209;28;20637;-82
2023/06/18 11:31:08;;;;;;;0.10;0.10;;;32.50;99.90;;;;;;5043970;28;20249;-82
2023/06/18 11:33:34;;;;;;;0.10;0.10;;;31.80;99.90;;;;;;5042274;28;20196;-82
2023/06/18 11:36:11;;;;;;;0.10;0.10;;;31.40;99.90;;;;;;5042516;28;20181;-81
2023/06/18 11:38:38;;;;;;;0.10;0.10;;;31.80;99.90;;;;;;5041685;28;20206;-81
2023/06/18 11:41:03;;;;;;;0.10;0.10;;;32.00;99.90;;;;;;5035979;28;20186;-81
2023/06/18 11:44:01;;;;;;;0.10;0.10;;;32.30;99.90;;;;;;5039756;28;20279;-80
2023/06/18 11:46:33;;;;;;;0.10;0.10;;;32.70;99.90;;;;;;5043048;28;20271;-81
2023/06/18 11:48:59;;;;;;;0.10;0.10;;;32.70;99.90;;;;;;5040974;28;20209;-80
2023/06/18 11:51:26;;;;;;;0.10;0.10;;;32.60;99.90;;;;;;5042503;28;20193;-81
2023/06/18 11:53:53;;;;;;;0.10;0.10;;;32.40;99.90;;;;;;5042405;28;20232;-81
2023/06/18 11:56:27;;;;;;;0.10;0.10;;;32.20;99.90;;;;;;5038278;28;20189;-81
2023/06/18 11:58:55;;;;;;;0.10;0.10;;;32.40;99.90;;;;;;5042132;28;20201;-81
2023/06/18 12:01:28;;;;;;;0.10;0.10;;;32.60;99.90;;;;;;5040885;28;20182;-81
2023/06/18 12:04:01;;;;;;;0.10;0.10;;;32.70;99.90;;;;;;5042934;28;20185;-81
2023/06/18 12:06:27;;;;;;;0.10;0.10;;;32.70;99.90;;;;;;5043374;28;20201;-81
2023/06/18 12:08:52;;;;;;;0.10;0.10;;;32.80;99.90;;;;;;5040727;28;20207;-80
2023/06/18 12:11:30;;;;;;;0.10;0.10;;;32.70;99.90;;;;;;5039053;28;20186;-80
2023/06/18 12:14:01;;;;;;;0.10;0.10;;;32.90;99.90;;;;;;5040777;28;20268;-80
2023/06/18 12:16:29;;;;;;;0.10;0.10;;;33.00;99.90;;;;;;5042078;28;20217;-81
2023/06/18 12:19:01;;;;;;;0.10;0.10;;;32.90;99.90;;;;;;5040595;28;20980;-80
2023/06/18 12:21:27;;;;;;;0.10;0.10;;;33.00;99.90;;;;;;5040508;28;20217;-81
2023/06/18 12:23:53;;;;;;;0.10;0.10;;;32.90;99.90;;;;;;5042415;28;20855;-80
2023/06/18 12:26:19;;;;;;;0.10;0.10;;;32.90;99.90;;;;;;5042814;28;20233;-80
2023/06/18 12:28:44;;;;;;;0.10;0.10;;;32.70;99.90;;;;;;5041783;28;20194;-80
2023/06/18 12:31:11;;;;;;;0.10;0.10;;;32.80;99.90;;;;;;5042571;28;20647;-80
2023/06/18 12:33:38;;;;;;;0.10;0.10;;;33.00;99.90;;;;;;5040738;28;20239;-80
2023/06/18 12:36:04;;;;;;;0.10;0.10;;;33.10;99.90;;;;;;5039788;28;21090;-81
2023/06/18 12:38:43;;;;;;;0.10;0.10;;;33.30;99.90;;;;;;5040149;28;20186;-81
2023/06/18 12:41:09;;;;;;;0.10;0.10;;;33.20;99.90;;;;;;5038271;28;20190;-80
2023/06/18 12:43:41;;;;;;;0.10;0.10;;;33.20;99.90;;;;;;5042892;28;20194;-80
2023/06/18 12:46:07;;;;;;;0.10;0.10;;;33.20;99.90;;;;;;5040434;28;20284;-81
2023/06/18 12:48:40;;;;;;;0.10;0.10;;;33.10;99.90;;;;;;5041625;28;20300;-80